createdAt,value
2023-09-19T00:01:08.951Z,7.30
2023-09-19T00:03:45.657Z,6.80
2023-09-19T00:06:21.700Z,6.10
2023-09-19T00:08:54.497Z,7.50
2023-09-19T00:11:27.510Z,6.80
2023-09-19T00:14:00.808Z,7.00
2023-09-19T00:16:33.932Z,8.10
2023-09-19T00:19:10.297Z,7.70
2023-09-19T00:21:43.232Z,8.30
2023-09-19T00:24:15.325Z,7.90
2023-09-19T00:26:49.208Z,8.20
2023-09-19T00:29:22.694Z,7.50
2023-09-19T00:31:55.404Z,7.70
2023-09-19T00:34:27.494Z,6.60
2023-09-19T00:37:00.937Z,7.10
2023-09-19T00:39:33.658Z,6.90
2023-09-19T00:42:06.733Z,8.10
2023-09-19T00:44:39.705Z,8.00
2023-09-19T00:47:17.378Z,7.70
2023-09-19T00:49:53.962Z,6.90
2023-09-19T00:52:26.694Z,7.20
2023-09-19T00:55:01.400Z,8.20
2023-09-19T00:57:35.010Z,9.60
2023-09-19T01:00:09.807Z,7.90
2023-09-19T01:02:42.364Z,8.10
2023-09-19T01:05:15.518Z,7.50
2023-09-19T01:07:50.276Z,7.90
2023-09-19T01:10:24.476Z,7.60
2023-09-19T01:13:06.874Z,7.00
2023-09-19T01:15:53.612Z,7.60
2023-09-19T01:18:42.988Z,7.70
2023-09-19T01:21:24.559Z,7.50
2023-09-19T01:24:29.274Z,7.90
2023-09-19T01:27:28.061Z,7.30
2023-09-19T01:30:12.824Z,7.60
2023-09-19T01:32:47.892Z,7.40
2023-09-19T01:35:21.076Z,7.60
2023-09-19T01:37:55.002Z,7.60
2023-09-19T01:40:27.760Z,7.60
2023-09-19T01:43:08.459Z,7.70
2023-09-19T01:46:00.362Z,7.50
2023-09-19T01:48:41.606Z,7.70
2023-09-19T01:51:16.937Z,7.30
2023-09-19T01:53:58.253Z,7.20
2023-09-19T01:56:39.160Z,7.70
2023-09-19T01:59:16.105Z,7.90
2023-09-19T02:01:50.494Z,7.30
2023-09-19T02:04:23.953Z,8.60
2023-09-19T02:06:57.642Z,7.70
2023-09-19T02:09:31.445Z,7.50
2023-09-19T02:12:06.130Z,8.10
2023-09-19T02:14:40.799Z,7.60
2023-09-19T02:17:13.646Z,8.10
2023-09-19T02:19:46.112Z,7.90
2023-09-19T02:22:18.365Z,7.50
2023-09-19T02:24:52.041Z,8.30
2023-09-19T02:27:25.082Z,7.80
2023-09-19T02:29:58.005Z,8.10
2023-09-19T02:32:31.534Z,7.10
2023-09-19T02:35:05.738Z,7.60
2023-09-19T02:37:38.226Z,8.00
2023-09-19T02:40:20.530Z,7.40
2023-09-19T02:42:57.709Z,7.90
2023-09-19T02:45:31.335Z,8.30
2023-09-19T02:48:06.173Z,7.80
2023-09-19T02:50:39.722Z,7.20
2023-09-19T02:53:14.002Z,8.10
2023-09-19T02:55:47.260Z,8.50
2023-09-19T02:58:20.585Z,8.20
2023-09-19T03:00:53.131Z,7.60
2023-09-19T03:03:25.821Z,7.10
2023-09-19T03:05:59.901Z,8.50
2023-09-19T03:08:32.351Z,8.10
2023-09-19T03:11:06.951Z,8.50
2023-09-19T03:13:39.858Z,8.20
2023-09-19T03:16:13.077Z,8.00
2023-09-19T03:18:46.530Z,7.70
2023-09-19T03:21:20.884Z,8.20
2023-09-19T03:23:52.948Z,8.10
2023-09-19T03:26:27.647Z,8.20
2023-09-19T03:29:00.045Z,8.80
2023-09-19T03:31:32.294Z,7.70
2023-09-19T03:34:05.034Z,7.40
2023-09-19T03:36:37.166Z,8.00
2023-09-19T03:39:11.886Z,8.30
2023-09-19T03:41:46.406Z,7.70
2023-09-19T03:44:18.793Z,8.20
2023-09-19T03:46:51.701Z,8.00
2023-09-19T03:49:27.149Z,7.70
2023-09-19T03:51:59.734Z,8.20
2023-09-19T03:54:35.861Z,8.20
2023-09-19T03:57:08.837Z,8.30
2023-09-19T03:59:44.221Z,7.60
2023-09-19T04:02:23.920Z,7.20
2023-09-19T04:04:56.647Z,8.20
2023-09-19T04:07:30.450Z,8.80
2023-09-19T04:10:05.792Z,8.50
2023-09-19T04:12:37.893Z,8.20
2023-09-19T04:15:14.619Z,7.40
2023-09-19T04:17:48.036Z,8.20
2023-09-19T04:20:21.787Z,7.80
2023-09-19T04:22:54.098Z,7.50
2023-09-19T04:25:29.129Z,8.20
2023-09-19T04:28:01.805Z,7.40
2023-09-19T04:30:36.589Z,7.40
2023-09-19T04:33:09.043Z,7.90
2023-09-19T04:35:43.892Z,8.00
2023-09-19T04:38:16.101Z,7.40
2023-09-19T04:40:48.567Z,7.90
2023-09-19T04:43:23.069Z,7.20
2023-09-19T04:45:58.013Z,8.20
2023-09-19T04:48:31.100Z,9.10
2023-09-19T04:51:03.522Z,9.60
2023-09-19T04:53:35.984Z,12.40
2023-09-19T04:56:09.421Z,15.10
2023-09-19T04:58:41.686Z,12.30
2023-09-19T05:01:16.658Z,9.90
2023-09-19T05:03:53.663Z,8.30
2023-09-19T05:06:27.993Z,7.50
2023-09-19T05:09:01.635Z,8.30
2023-09-19T05:11:34.532Z,7.40
2023-09-19T05:14:07.021Z,7.10
2023-09-19T05:16:41.219Z,8.20
2023-09-19T05:19:13.929Z,7.90
2023-09-19T05:21:46.563Z,7.80
2023-09-19T05:24:19.224Z,8.50
2023-09-19T05:26:52.553Z,7.80
2023-09-19T05:29:24.780Z,8.30
2023-09-19T05:31:57.202Z,8.00
2023-09-19T05:34:31.491Z,9.00
2023-09-19T05:37:03.973Z,8.20
2023-09-19T05:39:36.189Z,7.70
2023-09-19T05:42:09.431Z,6.60
2023-09-19T05:44:41.655Z,7.40
2023-09-19T05:47:14.292Z,7.60
2023-09-19T05:49:46.611Z,7.10
2023-09-19T05:52:18.999Z,8.50
2023-09-19T05:54:52.361Z,7.90
2023-09-19T05:57:26.044Z,8.80
2023-09-19T05:59:58.178Z,8.70
2023-09-19T06:02:31.721Z,7.80
2023-09-19T06:05:04.636Z,7.80
2023-09-19T06:07:38.491Z,7.80
2023-09-19T06:10:11.587Z,7.30
2023-09-19T06:12:45.577Z,7.40
2023-09-19T06:15:20.675Z,7.70
2023-09-19T06:17:56.678Z,7.70
2023-09-19T06:20:30.159Z,8.70
2023-09-19T06:23:03.558Z,8.10
2023-09-19T06:25:35.912Z,7.80
2023-09-19T06:28:11.700Z,7.30
2023-09-19T06:30:43.978Z,7.90
2023-09-19T06:33:19.752Z,7.60
2023-09-19T06:35:54.022Z,7.10
2023-09-19T06:38:26.435Z,7.70
2023-09-19T06:40:58.786Z,8.80
2023-09-19T06:43:32.101Z,8.70
2023-09-19T06:46:05.208Z,7.80
2023-09-19T06:48:38.014Z,8.70
2023-09-19T06:51:11.317Z,9.20
2023-09-19T06:53:43.767Z,8.80
2023-09-19T06:56:15.818Z,8.20
2023-09-19T06:58:48.293Z,8.50
2023-09-19T07:01:21.911Z,8.40
2023-09-19T07:03:54.631Z,8.30
2023-09-19T07:06:27.400Z,8.90
2023-09-19T07:08:59.543Z,8.90
2023-09-19T07:11:32.160Z,9.00
2023-09-19T07:14:04.722Z,8.30
2023-09-19T07:16:37.428Z,8.60
2023-09-19T07:19:12.595Z,8.30
2023-09-19T07:21:44.808Z,9.40
2023-09-19T07:24:17.106Z,9.50
2023-09-19T07:26:49.502Z,9.00
2023-09-19T07:29:22.360Z,8.20
2023-09-19T07:31:54.578Z,9.50
2023-09-19T07:34:26.726Z,9.20
2023-09-19T07:36:58.865Z,10.30
2023-09-19T07:39:31.243Z,10.70
2023-09-19T07:42:03.893Z,10.10
2023-09-19T07:44:37.283Z,11.00
2023-09-19T07:47:10.980Z,11.10
2023-09-19T07:49:44.980Z,11.70
2023-09-19T07:52:17.416Z,12.70
2023-09-19T07:54:50.716Z,11.00
2023-09-19T07:57:22.842Z,10.90
2023-09-19T07:59:55.228Z,11.50
2023-09-19T08:02:27.408Z,8.80
2023-09-19T08:05:01.969Z,9.70
2023-09-19T08:07:34.276Z,9.80
2023-09-19T08:10:09.103Z,10.10
2023-09-19T08:12:47.481Z,9.40
2023-09-19T08:15:21.995Z,10.70
2023-09-19T08:17:54.400Z,11.20
2023-09-19T08:20:26.986Z,8.90
2023-09-19T08:23:00.057Z,9.60
2023-09-19T08:25:32.925Z,11.20
2023-09-19T08:28:09.617Z,10.60
2023-09-19T08:30:42.967Z,10.40
2023-09-19T08:33:16.454Z,10.80
2023-09-19T08:35:48.872Z,9.20
2023-09-19T08:38:22.171Z,10.00
2023-09-19T08:40:54.562Z,9.90
2023-09-19T08:43:26.834Z,10.00
2023-09-19T08:46:11.833Z,10.20
2023-09-19T08:48:54.265Z,10.30
2023-09-19T08:51:42.276Z,9.00
2023-09-19T08:54:23.547Z,8.60
2023-09-19T08:56:59.877Z,9.80
2023-09-19T08:59:32.967Z,8.70
2023-09-19T09:02:06.459Z,9.70
2023-09-19T09:04:38.844Z,10.00
2023-09-19T09:07:14.904Z,9.00
2023-09-19T09:09:47.377Z,8.50
2023-09-19T09:12:21.049Z,9.40
2023-09-19T09:14:53.801Z,9.50
2023-09-19T09:17:26.590Z,8.30
2023-09-19T09:20:00.033Z,7.90
2023-09-19T09:22:32.940Z,8.00
2023-09-19T09:25:06.045Z,7.70
2023-09-19T09:27:38.332Z,7.20
2023-09-19T09:30:14.382Z,7.00
2023-09-19T09:33:02.051Z,7.50
2023-09-19T09:35:40.218Z,7.40
2023-09-19T09:38:13.623Z,7.40
2023-09-19T09:41:01.101Z,8.60
2023-09-19T09:43:41.435Z,7.70
2023-09-19T09:46:36.502Z,7.60
2023-09-19T09:49:27.930Z,7.80
2023-09-19T09:52:12.222Z,7.60
2023-09-19T09:55:06.669Z,7.20
2023-09-19T09:57:42.275Z,7.30
2023-09-19T10:00:21.875Z,6.40
2023-09-19T10:02:54.563Z,5.70
2023-09-19T10:05:30.227Z,6.10
2023-09-19T10:08:21.024Z,5.50
2023-09-19T10:11:05.012Z,5.00
2023-09-19T10:13:43.287Z,4.80
2023-09-19T10:16:21.188Z,4.80
2023-09-19T10:18:59.674Z,4.80
2023-09-19T10:21:32.683Z,4.10
2023-09-19T10:24:06.092Z,4.10
2023-09-19T10:26:38.880Z,4.70
2023-09-19T10:29:12.121Z,4.70
2023-09-19T10:31:50.286Z,5.20
2023-09-19T10:34:24.720Z,5.40
2023-09-19T10:36:56.943Z,6.10
2023-09-19T10:39:32.848Z,7.30
2023-09-19T10:42:08.452Z,5.60
2023-09-19T10:44:44.678Z,5.60
2023-09-19T10:47:17.219Z,5.70
2023-09-19T10:49:50.185Z,5.40
2023-09-19T10:52:27.044Z,5.20
2023-09-19T10:55:02.741Z,5.30
2023-09-19T10:57:37.318Z,4.50
2023-09-19T11:00:25.563Z,4.90
2023-09-19T11:06:12.829Z,4.60
2023-09-19T11:09:25.123Z,5.00
2023-09-19T11:11:58.715Z,5.60
2023-09-19T11:14:46.794Z,5.30
2023-09-19T11:17:48.224Z,4.60
2023-09-19T11:20:43.089Z,4.00
2023-09-19T11:23:32.135Z,3.80
2023-09-19T11:26:05.969Z,3.50
2023-09-19T11:28:40.572Z,3.70
2023-09-19T11:32:00.923Z,3.50
2023-09-19T11:34:49.890Z,3.80
2023-09-19T11:38:12.293Z,4.10
2023-09-19T11:40:56.757Z,3.30
2023-09-19T11:43:41.718Z,3.40
2023-09-19T11:46:25.739Z,3.80
2023-09-19T11:49:09.436Z,4.30
2023-09-19T11:51:46.082Z,4.20
2023-09-19T11:54:23.349Z,4.40
2023-09-19T11:56:56.726Z,3.80
2023-09-19T11:59:34.605Z,3.90
2023-09-19T12:02:10.127Z,4.00
2023-09-19T12:04:46.629Z,3.60
2023-09-19T12:07:25.260Z,3.40
2023-09-19T12:10:13.069Z,3.60
2023-09-19T12:12:51.320Z,3.40
2023-09-19T12:15:29.913Z,3.40
2023-09-19T12:18:09.243Z,4.30
2023-09-19T12:20:50.158Z,3.80
2023-09-19T12:23:23.086Z,3.80
2023-09-19T12:25:58.857Z,3.70
2023-09-19T12:28:36.276Z,3.30
2023-09-19T12:31:13.204Z,3.60
2023-09-19T12:33:45.863Z,3.60
2023-09-19T12:36:31.478Z,4.10
2023-09-19T12:39:10.258Z,4.20
2023-09-19T12:41:46.581Z,4.30
2023-09-19T12:44:19.437Z,4.50
2023-09-19T12:46:52.290Z,4.10
2023-09-19T12:49:24.478Z,4.00
2023-09-19T12:52:00.659Z,3.30
2023-09-19T12:54:43.141Z,4.10
2023-09-19T12:57:28.603Z,3.60
2023-09-19T13:00:01.247Z,4.10
2023-09-19T13:02:33.999Z,3.60
2023-09-19T13:05:08.410Z,3.80
2023-09-19T13:07:48.540Z,4.10
2023-09-19T13:10:25.565Z,3.30
2023-09-19T13:13:00.156Z,4.20
2023-09-19T13:15:53.614Z,4.00
2023-09-19T13:18:28.166Z,4.20
2023-09-19T13:21:16.401Z,3.80
2023-09-19T13:23:49.655Z,4.10
2023-09-19T13:26:23.980Z,4.60
2023-09-19T13:28:56.585Z,4.40
2023-09-19T13:31:28.890Z,4.20
2023-09-19T13:34:01.206Z,3.90
2023-09-19T13:36:33.899Z,4.70
2023-09-19T13:39:06.701Z,3.70
2023-09-19T13:41:44.048Z,4.00
2023-09-19T13:44:19.318Z,4.50
2023-09-19T13:46:52.763Z,4.80
2023-09-19T13:49:25.413Z,4.40
2023-09-19T13:51:59.550Z,4.80
2023-09-19T13:54:31.989Z,5.40
2023-09-19T13:57:04.561Z,5.50
2023-09-19T13:59:37.221Z,6.00
2023-09-19T14:02:09.919Z,5.80
2023-09-19T14:04:42.361Z,5.90
2023-09-19T14:07:16.627Z,6.90
2023-09-19T14:09:54.121Z,7.70
2023-09-19T14:12:28.826Z,6.80
2023-09-19T14:15:00.873Z,5.90
2023-09-19T14:17:34.356Z,5.40
2023-09-19T14:20:08.416Z,4.70
2023-09-19T14:22:41.137Z,4.90
2023-09-19T14:25:13.566Z,4.50
2023-09-19T14:27:46.124Z,4.40
2023-09-19T14:30:18.815Z,4.00
2023-09-19T14:32:57.356Z,3.90
2023-09-19T14:35:29.496Z,4.00
2023-09-19T14:38:03.040Z,3.60
2023-09-19T14:40:37.526Z,3.70
2023-09-19T14:43:09.909Z,3.50
2023-09-19T14:45:42.261Z,4.40
2023-09-19T14:48:14.678Z,4.30
2023-09-19T14:50:49.477Z,3.90
2023-09-19T14:53:22.220Z,3.70
2023-09-19T14:55:56.291Z,4.10
2023-09-19T14:58:31.247Z,4.10
2023-09-19T15:01:11.564Z,3.60
2023-09-19T15:03:45.754Z,3.60
2023-09-19T15:06:23.170Z,3.80
2023-09-19T15:08:55.351Z,3.80
2023-09-19T15:11:27.444Z,3.80
2023-09-19T15:14:00.276Z,4.10
2023-09-19T15:16:34.274Z,4.10
2023-09-19T15:19:08.724Z,3.80
2023-09-19T15:21:41.624Z,4.40
2023-09-19T15:24:14.065Z,4.00
2023-09-19T15:26:49.355Z,4.60
2023-09-19T15:29:22.802Z,3.80
2023-09-19T15:31:58.737Z,3.90
2023-09-19T15:34:31.337Z,4.00
2023-09-19T15:37:07.204Z,3.90
2023-09-19T15:39:39.391Z,3.80
2023-09-19T15:42:13.347Z,4.00
2023-09-19T15:44:47.987Z,3.70
2023-09-19T15:47:28.761Z,4.40
2023-09-19T15:50:01.517Z,3.80
2023-09-19T15:52:33.781Z,4.10
2023-09-19T15:55:08.552Z,3.50
2023-09-19T15:57:41.658Z,3.50
2023-09-19T16:00:18.542Z,3.90
2023-09-19T16:02:52.936Z,3.60
2023-09-19T16:05:26.475Z,3.50
2023-09-19T16:08:01.620Z,3.90
2023-09-19T16:10:36.306Z,4.40
2023-09-19T16:13:09.308Z,4.00
2023-09-19T16:15:45.885Z,3.80
2023-09-19T16:18:17.958Z,4.00
2023-09-19T16:20:51.593Z,3.70
2023-09-19T16:23:25.389Z,4.00
2023-09-19T16:26:07.183Z,3.60
2023-09-19T16:28:40.477Z,3.70
2023-09-19T16:31:13.066Z,3.60
2023-09-19T16:33:47.314Z,3.50
2023-09-19T16:36:24.006Z,3.90
2023-09-19T16:38:56.497Z,3.10
2023-09-19T16:41:29.055Z,3.70
2023-09-19T16:44:02.449Z,3.50
2023-09-19T16:46:38.320Z,3.30
2023-09-19T16:49:11.145Z,3.60
2023-09-19T16:51:45.624Z,3.70
2023-09-19T16:54:18.145Z,3.90
2023-09-19T16:56:50.978Z,3.80
2023-09-19T16:59:25.201Z,3.60
2023-09-19T17:01:58.561Z,3.80
2023-09-19T17:04:32.676Z,3.40
2023-09-19T17:07:05.196Z,3.20
2023-09-19T17:09:37.583Z,3.10
2023-09-19T17:12:11.788Z,2.90
2023-09-19T17:14:45.200Z,2.50
2023-09-19T17:17:17.738Z,2.60
2023-09-19T17:19:50.757Z,2.40
2023-09-19T17:22:24.687Z,2.30
2023-09-19T17:24:56.836Z,2.30
2023-09-19T17:27:29.405Z,2.40
2023-09-19T17:30:01.485Z,2.40
2023-09-19T17:32:33.890Z,2.50
2023-09-19T17:35:06.803Z,2.50
2023-09-19T17:37:40.465Z,2.20
2023-09-19T17:40:16.644Z,2.00
2023-09-19T17:42:50.086Z,2.00
2023-09-19T17:45:23.479Z,2.60
2023-09-19T17:47:58.049Z,2.10
2023-09-19T17:50:30.581Z,2.50
2023-09-19T17:53:04.153Z,2.50
2023-09-19T17:55:40.988Z,2.30
2023-09-19T17:58:17.144Z,1.90
2023-09-19T18:00:49.606Z,2.30
2023-09-19T18:03:26.326Z,2.40
2023-09-19T18:05:58.652Z,2.10
2023-09-19T18:08:31.003Z,2.80
2023-09-19T18:11:05.219Z,2.50
2023-09-19T18:13:37.631Z,2.40
2023-09-19T18:16:11.761Z,2.90
2023-09-19T18:18:47.021Z,2.60
2023-09-19T18:21:22.628Z,2.60
2023-09-19T18:23:59.058Z,2.60
2023-09-19T18:26:31.713Z,2.40
2023-09-19T18:29:07.034Z,2.50
2023-09-19T18:31:50.786Z,2.00
2023-09-19T18:34:23.282Z,2.50
2023-09-19T18:37:00.176Z,2.20
2023-09-19T18:39:35.839Z,2.30
2023-09-19T18:42:09.601Z,2.10
2023-09-19T18:44:47.546Z,2.40
2023-09-19T18:49:52.209Z,2.20
2023-09-19T18:52:28.798Z,2.30
2023-09-19T18:55:01.109Z,2.00
2023-09-19T18:57:33.242Z,2.10
2023-09-19T19:00:06.223Z,2.30
2023-09-19T19:02:40.984Z,2.50
2023-09-19T19:05:14.589Z,2.70
2023-09-19T19:07:47.265Z,2.40
2023-09-19T19:10:21.736Z,2.40
2023-09-19T19:12:54.102Z,2.20
2023-09-19T19:15:26.619Z,3.10
2023-09-19T19:18:00.204Z,2.40
2023-09-19T19:20:33.977Z,2.10
2023-09-19T19:23:06.850Z,2.00
2023-09-19T19:25:48.574Z,1.80
2023-09-19T19:28:26.232Z,2.20
2023-09-19T19:33:30.754Z,2.20
2023-09-19T19:36:09.638Z,2.50
2023-09-19T19:38:42.933Z,2.20
2023-09-19T19:41:15.543Z,2.50
2023-09-19T19:43:50.640Z,2.10
2023-09-19T19:46:23.327Z,2.40
2023-09-19T19:48:55.585Z,2.70
2023-09-19T19:51:28.214Z,2.50
2023-09-19T19:54:00.347Z,2.70
2023-09-19T19:56:34.901Z,2.80
2023-09-19T19:59:07.652Z,2.60
2023-09-19T20:01:41.975Z,2.90
2023-09-19T20:04:15.520Z,2.80
2023-09-19T20:06:47.724Z,2.70
2023-09-19T20:09:22.598Z,3.20
2023-09-19T20:11:58.435Z,3.00
2023-09-19T20:14:30.922Z,2.80
2023-09-19T20:17:05.315Z,2.70
2023-09-19T20:19:37.409Z,2.20
2023-09-19T20:22:12.222Z,2.80
2023-09-19T20:24:47.459Z,2.90
2023-09-19T20:27:22.557Z,2.90
2023-09-19T20:29:54.613Z,3.10
2023-09-19T20:32:26.982Z,3.00
2023-09-19T20:35:01.192Z,3.00
2023-09-19T20:37:34.220Z,2.60
2023-09-19T20:40:07.785Z,2.80
2023-09-19T20:42:40.653Z,3.00
2023-09-19T20:45:14.307Z,3.00
2023-09-19T20:47:46.676Z,2.40
2023-09-19T20:50:20.604Z,2.80
2023-09-19T20:52:54.074Z,3.10
2023-09-19T20:55:26.732Z,3.80
2023-09-19T20:58:00.824Z,3.80
2023-09-19T21:00:36.108Z,4.30
2023-09-19T21:03:08.648Z,4.80
2023-09-19T21:05:41.132Z,4.50
2023-09-19T21:08:13.127Z,4.30
2023-09-19T21:10:45.491Z,4.00
2023-09-19T21:13:17.718Z,4.30
2023-09-19T21:15:50.428Z,4.20
2023-09-19T21:18:23.029Z,3.80
2023-09-19T21:20:55.855Z,4.30
2023-09-19T21:23:27.988Z,4.10
2023-09-19T21:26:00.557Z,4.30
2023-09-19T21:28:32.756Z,3.80
2023-09-19T21:31:08.522Z,4.10
2023-09-19T21:33:43.740Z,3.90
2023-09-19T21:36:21.945Z,3.90
2023-09-19T21:39:00.173Z,3.60
2023-09-19T21:41:35.135Z,4.00
2023-09-19T21:44:08.852Z,3.60
2023-09-19T21:46:42.945Z,3.20
2023-09-19T21:49:15.024Z,3.00
2023-09-19T21:51:47.351Z,3.60
2023-09-19T21:54:24.860Z,3.90
2023-09-19T21:56:59.630Z,3.20
2023-09-19T21:59:31.582Z,3.70
2023-09-19T22:02:04.097Z,3.60
2023-09-19T22:04:37.061Z,3.60
2023-09-19T22:07:10.136Z,3.30
2023-09-19T22:09:42.040Z,3.20
2023-09-19T22:12:14.798Z,3.20
2023-09-19T22:14:46.846Z,3.20
2023-09-19T22:17:20.485Z,3.40
2023-09-19T22:19:55.188Z,2.80
2023-09-19T22:22:31.001Z,3.30
2023-09-19T22:25:03.654Z,2.70
2023-09-19T22:27:36.431Z,3.00
2023-09-19T22:30:13.379Z,3.00
2023-09-19T22:32:46.080Z,3.20
2023-09-19T22:35:23.238Z,3.40
2023-09-19T22:38:08.167Z,3.60
2023-09-19T22:40:52.855Z,2.70
2023-09-19T22:43:33.389Z,2.90
2023-09-19T22:46:12.465Z,2.70
2023-09-19T22:48:47.349Z,3.00
2023-09-19T22:51:26.474Z,2.50
2023-09-19T22:54:00.645Z,2.00
2023-09-19T22:56:32.678Z,2.70
2023-09-19T22:59:06.049Z,2.50
2023-09-19T23:01:42.602Z,2.70
2023-09-19T23:04:18.501Z,2.50
2023-09-19T23:06:53.928Z,2.60
2023-09-19T23:09:31.251Z,3.10
2023-09-19T23:12:06.717Z,3.30
2023-09-19T23:14:43.101Z,2.80
2023-09-19T23:17:22.829Z,2.90
2023-09-19T23:19:57.263Z,2.60
2023-09-19T23:22:30.311Z,2.50
2023-09-19T23:25:13.679Z,2.60
2023-09-19T23:27:48.683Z,2.60
2023-09-19T23:30:24.283Z,2.70
2023-09-19T23:32:56.927Z,2.40
2023-09-19T23:35:29.756Z,2.40
2023-09-19T23:38:03.514Z,2.60
2023-09-19T23:40:37.522Z,2.30
2023-09-19T23:43:12.953Z,2.70
2023-09-19T23:45:45.602Z,2.40
2023-09-19T23:48:20.559Z,2.60
2023-09-19T23:50:53.283Z,2.50
2023-09-19T23:53:27.561Z,2.50
2023-09-19T23:55:59.891Z,2.40
2023-09-19T23:58:34.322Z,2.50
